»·PEaware :: FDX5954 KSNA-KLAS

FDX5954 :: KSNA-KLAS

FLIGHT INFORMATION

Flight Status: Arrived
Operator:
Federal Express
More flights by this operator :: More flights under this callsign
Pilot: Joshua M. (19482)
Aircraft: BOEING 737-800
(B738)
More flights by this aircraft type
Origin: KSNA John Wayne-Orange Co
United States
Destination: KLAS McCarran Intl
United States
More flights between these airports :: More routes between these airports
Route: MUSEL8 DAG CLARR3
File this flight plan on PilotEdge
Remarks: Outdated FMC Default XPlane
Altitude:
(Current/Filed)
31,000ft
Speed:
(Current/Filed)
450kts
Departed: 11-Jul-18 07:12 PM
Arrived: 11-Jul-18 08:21 PM
Distance/Time
Traveled:
196nm/1:09
Distance/Time
To Go:
Arrived

Flight Plot

Page will automatically refresh every two minutes.

Flight plan parsing failed; only flown route is shown


Map Options




Map Legend


Flown Route
Filed Route
Departure Airport
Arrival Airport
Navaid (VOR, NDB)
Fix

Horizontal Profiles

Position Reports

Time Latitude Longitude Heading Altitude Ground
Speed
11-Jul-18 18:18 33.679004 -117.862570 117 64ft 0kts
11-Jul-18 18:19 33.679004 -117.862570 117 64ft 0kts
11-Jul-18 18:20 33.679004 -117.862570 117 64ft 0kts
11-Jul-18 18:21 33.679004 -117.862570 117 64ft 0kts
11-Jul-18 18:22 33.679004 -117.862570 117 64ft 0kts
11-Jul-18 18:23 33.679004 -117.862570 117 64ft 0kts
11-Jul-18 18:24 33.679004 -117.862570 117 64ft 0kts
11-Jul-18 18:25 33.679004 -117.862570 117 64ft 0kts
11-Jul-18 18:26 33.679004 -117.862570 117 64ft 0kts
11-Jul-18 18:27 33.679004 -117.862570 117 64ft 0kts
11-Jul-18 18:28 33.679004 -117.862570 117 64ft 0kts
11-Jul-18 18:29 33.679004 -117.862570 117 64ft 0kts
11-Jul-18 18:30 33.679004 -117.862570 117 64ft 0kts
11-Jul-18 18:31 33.679004 -117.862570 117 64ft 0kts
11-Jul-18 18:32 33.679004 -117.862570 117 64ft 0kts
11-Jul-18 18:33 33.679004 -117.862570 117 64ft 0kts
11-Jul-18 18:34 33.679005 -117.862572 117 64ft 0kts
11-Jul-18 18:35 33.679262 -117.863157 117 64ft 2kts
11-Jul-18 18:36 33.679290 -117.863221 117 64ft 0kts
11-Jul-18 18:37 33.679290 -117.863221 117 64ft 0kts
11-Jul-18 18:38 33.679290 -117.863221 117 64ft 0kts
11-Jul-18 18:39 33.679290 -117.863221 117 64ft 0kts
11-Jul-18 18:40 33.679290 -117.863221 117 64ft 0kts
11-Jul-18 18:41 33.679290 -117.863221 117 64ft 0kts
11-Jul-18 18:42 33.679290 -117.863221 117 64ft 0kts
11-Jul-18 18:43 33.679290 -117.863221 117 64ft 0kts
11-Jul-18 18:44 33.679290 -117.863221 117 64ft 0kts
11-Jul-18 18:45 33.679290 -117.863221 117 64ft 0kts
11-Jul-18 18:46 33.679290 -117.863221 117 64ft 0kts
11-Jul-18 18:47 33.679290 -117.863221 117 64ft 0kts
11-Jul-18 18:48 33.679290 -117.863221 117 64ft 0kts
11-Jul-18 18:49 33.679290 -117.863221 117 64ft 0kts
11-Jul-18 18:50 33.679290 -117.863221 117 64ft 0kts
11-Jul-18 18:51 33.679290 -117.863221 117 64ft 0kts
11-Jul-18 18:52 33.679290 -117.863221 117 64ft 0kts
11-Jul-18 18:53 33.679290 -117.863221 117 64ft 0kts
11-Jul-18 18:54 33.679290 -117.863221 117 64ft 0kts
11-Jul-18 18:55 33.679290 -117.863221 117 64ft 0kts
11-Jul-18 18:56 33.679290 -117.863221 117 64ft 0kts
11-Jul-18 18:57 33.679290 -117.863221 117 64ft 0kts
11-Jul-18 18:58 33.679290 -117.863221 117 64ft 0kts
11-Jul-18 18:59 33.679290 -117.863221 117 64ft 0kts
11-Jul-18 19:00 33.679290 -117.863221 117 64ft 0kts
11-Jul-18 19:01 33.679290 -117.863221 117 64ft 0kts
11-Jul-18 19:02 33.679290 -117.863221 117 64ft 0kts
11-Jul-18 19:03 33.679290 -117.863221 117 64ft 0kts
11-Jul-18 19:04 33.679290 -117.863221 117 64ft 0kts
11-Jul-18 19:05 33.679290 -117.863221 117 64ft 0kts
11-Jul-18 19:06 33.679290 -117.863221 117 64ft 0kts
11-Jul-18 19:07 33.679290 -117.863221 117 64ft 0kts
11-Jul-18 19:08 33.679555 -117.862986 20 64ft 2kts
11-Jul-18 19:09 33.679854 -117.862835 27 64ft 0kts
11-Jul-18 19:10 33.680602 -117.862966 297 64ft 3kts
11-Jul-18 19:11 33.681451 -117.865098 262 64ft 6kts
11-Jul-18 19:12 33.681282 -117.865289 206 64ft 0kts
11-Jul-18 19:13 33.665964 -117.874967 207 577ft 143kts
11-Jul-18 19:14 33.643114 -117.881323 188 2172ft 155kts
11-Jul-18 19:15 33.605277 -117.888659 206 4511ft 187kts
11-Jul-18 19:16 33.582423 -117.930043 241 7017ft 205kts
11-Jul-18 19:17 33.579765 -117.982581 291 9474ft 216kts
11-Jul-18 19:18 33.602526 -118.048958 306 12458ft 229kts
11-Jul-18 19:19 33.649042 -118.067841 10 13116ft 245kts
11-Jul-18 19:20 33.710501 -118.061753 4 13420ft 273kts
11-Jul-18 19:21 33.779307 -118.052167 21 13774ft 322kts
11-Jul-18 19:22 33.835381 -118.007156 37 17472ft 287kts
11-Jul-18 19:23 33.889068 -117.958998 37 19943ft 282kts
11-Jul-18 19:24 33.934106 -117.918241 37 21958ft 243kts
11-Jul-18 19:25 33.978560 -117.877890 38 23101ft 249kts
11-Jul-18 19:26 34.023597 -117.836950 37 24080ft 260kts
11-Jul-18 19:27 34.070782 -117.793990 38 25138ft 266kts
11-Jul-18 19:28 34.110569 -117.743348 48 26138ft 270kts
11-Jul-18 19:29 34.151043 -117.689187 48 26934ft 289kts
11-Jul-18 19:30 34.195253 -117.629632 48 28235ft 290kts
11-Jul-18 19:31 34.239436 -117.569946 48 29420ft 288kts
11-Jul-18 19:32 34.283603 -117.510166 48 30351ft 294kts
11-Jul-18 19:33 34.327052 -117.451254 48 31091ft 304kts
11-Jul-18 19:34 34.349990 -117.375306 91 31286ft 330kts
11-Jul-18 19:35 34.347850 -117.282325 92 31317ft 339kts
11-Jul-18 19:36 34.345584 -117.186088 91 30722ft 379kts
11-Jul-18 19:37 34.364485 -117.080552 54 30974ft 397kts
11-Jul-18 19:38 34.436500 -117.026280 10 30957ft 425kts
11-Jul-18 19:39 34.550520 -117.022906 16 30949ft 452kts
11-Jul-18 19:40 34.642789 -116.940079 43 30947ft 449kts
11-Jul-18 19:41 34.727549 -116.844462 43 30945ft 449kts
11-Jul-18 19:42 34.811418 -116.749638 43 30941ft 445kts
11-Jul-18 19:43 34.892942 -116.657203 43 30489ft 420kts
11-Jul-18 19:44 34.975588 -116.561762 45 26635ft 428kts
11-Jul-18 19:45 35.049001 -116.470265 46 26064ft 368kts
11-Jul-18 19:46 35.113505 -116.389725 46 24497ft 356kts
11-Jul-18 19:47 35.173005 -116.315310 47 24357ft 314kts
11-Jul-18 19:48 35.235249 -116.237209 47 23977ft 336kts
11-Jul-18 19:49 35.294418 -116.162862 47 23521ft 310kts
11-Jul-18 19:50 35.350923 -116.091632 47 22621ft 317kts
11-Jul-18 19:51 35.408700 -116.018710 47 21461ft 307kts
11-Jul-18 19:52 35.464246 -115.948431 47 20094ft 300kts
11-Jul-18 19:53 35.518514 -115.879617 47 18701ft 294kts
11-Jul-18 19:54 35.571439 -115.812363 47 17218ft 293kts
11-Jul-18 19:55 35.623066 -115.746636 47 15856ft 288kts
11-Jul-18 19:56 35.672902 -115.683066 47 14552ft 283kts
11-Jul-18 19:57 35.722678 -115.619430 47 13396ft 298kts
11-Jul-18 19:58 35.786849 -115.572609 7 13075ft 306kts
11-Jul-18 19:59 35.869299 -115.574391 1 12604ft 305kts
11-Jul-18 20:00 35.949994 -115.574776 1 11115ft 295kts
11-Jul-18 20:01 36.020398 -115.552357 53 11040ft 278kts
11-Jul-18 20:02 36.033431 -115.468163 89 11046ft 280kts
11-Jul-18 20:03 36.031287 -115.395921 91 11050ft 280kts
11-Jul-18 20:04 36.028724 -115.326818 92 9673ft 279kts
11-Jul-18 20:05 36.025598 -115.255398 91 8091ft 272kts
11-Jul-18 20:06 36.031830 -115.181597 62 7568ft 274kts
11-Jul-18 20:07 36.056359 -115.120628 62 6317ft 269kts
11-Jul-18 20:08 36.097414 -115.053851 42 6053ft 267kts
11-Jul-18 20:09 36.143226 -114.999320 42 6005ft 234kts
11-Jul-18 20:10 36.183396 -114.951600 42 6024ft 195kts
11-Jul-18 20:11 36.219886 -114.908045 42 6018ft 199kts
11-Jul-18 20:12 36.256863 -114.866489 22 5999ft 196kts
11-Jul-18 20:13 36.295901 -114.890943 301 6019ft 183kts
11-Jul-18 20:14 36.285860 -114.944787 242 5160ft 189kts
11-Jul-18 20:15 36.261660 -114.994268 241 5018ft 186kts
11-Jul-18 20:16 36.234934 -115.037900 219 4041ft 165kts
11-Jul-18 20:17 36.199725 -115.068743 218 3691ft 166kts
11-Jul-18 20:18 36.162624 -115.100665 218 3592ft 166kts
11-Jul-18 20:19 36.133923 -115.125144 218 3086ft 146kts
11-Jul-18 20:20 36.105425 -115.148673 212 2365ft 142kts
11-Jul-18 20:21 36.082039 -115.163171 204 2189ft 51kts
11-Jul-18 20:22 36.075020 -115.165623 89 2189ft 0kts
11-Jul-18 20:23 36.075020 -115.165623 89 2189ft 0kts

Navigation Log

Ident Type
Flight plan parsing failed, navigation log unavailable